sensor_id;sensor_type;location;lat;lon;timestamp;P1;durP1;ratioP1;P2;durP2;ratioP2
27293;SDS011;14785;52.556;13.430;2023-02-28T00:00:31;5.35;;;2.15;;
27293;SDS011;14785;52.556;13.430;2023-02-28T00:02:57;5.43;;;2.13;;
27293;SDS011;14785;52.556;13.430;2023-02-28T00:05:23;3.67;;;2.13;;
27293;SDS011;14785;52.556;13.430;2023-02-28T00:07:52;6.90;;;3.08;;
27293;SDS011;14785;52.556;13.430;2023-02-28T00:10:19;3.33;;;2.00;;
27293;SDS011;14785;52.556;13.430;2023-02-28T00:12:55;2.72;;;1.60;;
27293;SDS011;14785;52.556;13.430;2023-02-28T00:15:25;6.10;;;2.65;;
27293;SDS011;14785;52.556;13.430;2023-02-28T00:17:51;10.70;;;4.25;;
27293;SDS011;14785;52.556;13.430;2023-02-28T00:20:16;7.13;;;3.00;;
27293;SDS011;14785;52.556;13.430;2023-02-28T00:22:44;7.43;;;4.20;;
27293;SDS011;14785;52.556;13.430;2023-02-28T00:25:13;9.02;;;3.17;;
27293;SDS011;14785;52.556;13.430;2023-02-28T00:27:40;9.93;;;3.78;;
27293;SDS011;14785;52.556;13.430;2023-02-28T00:30:07;10.98;;;4.88;;
27293;SDS011;14785;52.556;13.430;2023-02-28T00:32:35;11.18;;;4.97;;
27293;SDS011;14785;52.556;13.430;2023-02-28T00:35:02;8.53;;;4.03;;
27293;SDS011;14785;52.556;13.430;2023-02-28T00:37:28;9.20;;;4.18;;
27293;SDS011;14785;52.556;13.430;2023-02-28T00:39:54;7.27;;;3.33;;
27293;SDS011;14785;52.556;13.430;2023-02-28T00:42:19;5.77;;;2.70;;
27293;SDS011;14785;52.556;13.430;2023-02-28T00:44:45;19.13;;;3.00;;
27293;SDS011;14785;52.556;13.430;2023-02-28T00:47:10;5.43;;;2.40;;
27293;SDS011;14785;52.556;13.430;2023-02-28T00:49:35;6.90;;;3.07;;
27293;SDS011;14785;52.556;13.430;2023-02-28T00:52:01;8.27;;;3.10;;
27293;SDS011;14785;52.556;13.430;2023-02-28T00:54:27;7.60;;;2.90;;
27293;SDS011;14785;52.556;13.430;2023-02-28T00:56:52;6.23;;;2.47;;
27293;SDS011;14785;52.556;13.430;2023-02-28T00:59:20;3.93;;;2.00;;
27293;SDS011;14785;52.556;13.430;2023-02-28T01:01:46;5.88;;;2.85;;
27293;SDS011;14785;52.556;13.430;2023-02-28T01:04:12;6.45;;;3.05;;
27293;SDS011;14785;52.556;13.430;2023-02-28T01:06:39;5.07;;;2.25;;
27293;SDS011;14785;52.556;13.430;2023-02-28T01:09:05;5.38;;;2.50;;
27293;SDS011;14785;52.556;13.430;2023-02-28T01:11:33;7.40;;;2.95;;
27293;SDS011;14785;52.556;13.430;2023-02-28T01:13:59;5.20;;;1.98;;
27293;SDS011;14785;52.556;13.430;2023-02-28T01:16:24;9.47;;;2.60;;
27293;SDS011;14785;52.556;13.430;2023-02-28T01:18:50;6.33;;;1.80;;
27293;SDS011;14785;52.556;13.430;2023-02-28T01:21:16;4.73;;;2.13;;
27293;SDS011;14785;52.556;13.430;2023-02-28T01:23:44;4.13;;;2.10;;
27293;SDS011;14785;52.556;13.430;2023-02-28T01:26:10;6.43;;;2.37;;
27293;SDS011;14785;52.556;13.430;2023-02-28T01:28:38;4.78;;;1.95;;
27293;SDS011;14785;52.556;13.430;2023-02-28T01:31:03;7.20;;;2.77;;
27293;SDS011;14785;52.556;13.430;2023-02-28T01:33:30;7.13;;;1.55;;
27293;SDS011;14785;52.556;13.430;2023-02-28T01:35:59;4.10;;;2.10;;
27293;SDS011;14785;52.556;13.430;2023-02-28T01:38:24;4.90;;;1.55;;
27293;SDS011;14785;52.556;13.430;2023-02-28T01:40:50;1.90;;;1.50;;
27293;SDS011;14785;52.556;13.430;2023-02-28T01:43:19;3.13;;;2.03;;
27293;SDS011;14785;52.556;13.430;2023-02-28T01:46:07;7.75;;;2.92;;
27293;SDS011;14785;52.556;13.430;2023-02-28T01:48:35;4.00;;;1.60;;
27293;SDS011;14785;52.556;13.430;2023-02-28T01:51:11;2.97;;;1.52;;
27293;SDS011;14785;52.556;13.430;2023-02-28T01:53:44;4.45;;;1.92;;
27293;SDS011;14785;52.556;13.430;2023-02-28T01:56:13;5.68;;;2.25;;
27293;SDS011;14785;52.556;13.430;2023-02-28T01:58:46;3.63;;;1.52;;
27293;SDS011;14785;52.556;13.430;2023-02-28T02:01:12;3.08;;;2.03;;
27293;SDS011;14785;52.556;13.430;2023-02-28T02:03:46;3.40;;;1.63;;
27293;SDS011;14785;52.556;13.430;2023-02-28T02:06:20;4.72;;;2.83;;
27293;SDS011;14785;52.556;13.430;2023-02-28T02:08:49;4.85;;;1.88;;
27293;SDS011;14785;52.556;13.430;2023-02-28T02:11:16;7.20;;;1.60;;
27293;SDS011;14785;52.556;13.430;2023-02-28T02:14:06;5.38;;;3.10;;
27293;SDS011;14785;52.556;13.430;2023-02-28T02:19:39;5.93;;;1.98;;
27293;SDS011;14785;52.556;13.430;2023-02-28T02:25:32;8.35;;;2.45;;
27293;SDS011;14785;52.556;13.430;2023-02-28T02:28:12;6.75;;;2.45;;
27293;SDS011;14785;52.556;13.430;2023-02-28T02:42:01;6.10;;;2.60;;
27293;SDS011;14785;52.556;13.430;2023-02-28T02:44:36;3.47;;;1.98;;
27293;SDS011;14785;52.556;13.430;2023-02-28T02:47:14;8.00;;;2.30;;
27293;SDS011;14785;52.556;13.430;2023-02-28T02:49:54;3.42;;;1.58;;
27293;SDS011;14785;52.556;13.430;2023-02-28T02:52:23;2.90;;;1.88;;
27293;SDS011;14785;52.556;13.430;2023-02-28T02:54:55;3.05;;;1.48;;
27293;SDS011;14785;52.556;13.430;2023-02-28T02:57:31;4.93;;;2.25;;
27293;SDS011;14785;52.556;13.430;2023-02-28T03:00:02;5.53;;;2.42;;
27293;SDS011;14785;52.556;13.430;2023-02-28T03:02:33;3.95;;;2.08;;
27293;SDS011;14785;52.556;13.430;2023-02-28T03:05:08;4.63;;;2.13;;
27293;SDS011;14785;52.556;13.430;2023-02-28T03:07:42;3.08;;;2.20;;
27293;SDS011;14785;52.556;13.430;2023-02-28T03:12:53;3.45;;;1.88;;
27293;SDS011;14785;52.556;13.430;2023-02-28T03:15:57;6.70;;;3.33;;
27293;SDS011;14785;52.556;13.430;2023-02-28T03:18:32;7.82;;;2.75;;
27293;SDS011;14785;52.556;13.430;2023-02-28T03:26:24;4.50;;;2.17;;
27293;SDS011;14785;52.556;13.430;2023-02-28T03:31:33;5.28;;;2.83;;
27293;SDS011;14785;52.556;13.430;2023-02-28T03:34:12;4.25;;;2.50;;
27293;SDS011;14785;52.556;13.430;2023-02-28T03:36:53;4.43;;;2.83;;
27293;SDS011;14785;52.556;13.430;2023-02-28T03:39:34;9.18;;;3.13;;
27293;SDS011;14785;52.556;13.430;2023-02-28T03:42:07;5.10;;;2.33;;
27293;SDS011;14785;52.556;13.430;2023-02-28T03:44:42;3.00;;;2.58;;
27293;SDS011;14785;52.556;13.430;2023-02-28T03:47:14;6.50;;;2.72;;
27293;SDS011;14785;52.556;13.430;2023-02-28T03:49:54;6.00;;;2.05;;
27293;SDS011;14785;52.556;13.430;2023-02-28T03:52:26;8.52;;;2.60;;
27293;SDS011;14785;52.556;13.430;2023-02-28T03:54:56;5.38;;;2.40;;
27293;SDS011;14785;52.556;13.430;2023-02-28T03:57:32;5.15;;;3.50;;
27293;SDS011;14785;52.556;13.430;2023-02-28T04:00:10;5.22;;;2.47;;
27293;SDS011;14785;52.556;13.430;2023-02-28T04:02:39;3.92;;;2.55;;
27293;SDS011;14785;52.556;13.430;2023-02-28T04:05:05;7.37;;;2.77;;
27293;SDS011;14785;52.556;13.430;2023-02-28T04:07:32;4.40;;;2.70;;
27293;SDS011;14785;52.556;13.430;2023-02-28T04:09:58;4.00;;;1.52;;
27293;SDS011;14785;52.556;13.430;2023-02-28T04:12:24;7.50;;;2.45;;
27293;SDS011;14785;52.556;13.430;2023-02-28T04:14:50;4.75;;;1.90;;
27293;SDS011;14785;52.556;13.430;2023-02-28T04:17:16;3.00;;;1.73;;
27293;SDS011;14785;52.556;13.430;2023-02-28T04:19:42;7.50;;;2.08;;
27293;SDS011;14785;52.556;13.430;2023-02-28T04:22:08;9.17;;;2.00;;
27293;SDS011;14785;52.556;13.430;2023-02-28T04:24:34;4.88;;;2.53;;
27293;SDS011;14785;52.556;13.430;2023-02-28T04:27:00;3.07;;;2.00;;
27293;SDS011;14785;52.556;13.430;2023-02-28T04:29:27;4.70;;;2.28;;
27293;SDS011;14785;52.556;13.430;2023-02-28T04:31:55;3.45;;;1.85;;
27293;SDS011;14785;52.556;13.430;2023-02-28T04:34:25;5.25;;;3.00;;
27293;SDS011;14785;52.556;13.430;2023-02-28T04:39:19;8.20;;;2.30;;
27293;SDS011;14785;52.556;13.430;2023-02-28T04:41:48;4.68;;;1.95;;
27293;SDS011;14785;52.556;13.430;2023-02-28T04:44:14;7.28;;;2.97;;
27293;SDS011;14785;52.556;13.430;2023-02-28T04:46:40;7.63;;;2.67;;
27293;SDS011;14785;52.556;13.430;2023-02-28T04:49:06;8.38;;;2.97;;
27293;SDS011;14785;52.556;13.430;2023-02-28T04:51:31;3.67;;;2.23;;
27293;SDS011;14785;52.556;13.430;2023-02-28T04:53:57;5.73;;;2.07;;
27293;SDS011;14785;52.556;13.430;2023-02-28T04:56:22;3.83;;;1.63;;
27293;SDS011;14785;52.556;13.430;2023-02-28T04:58:48;3.85;;;2.20;;
27293;SDS011;14785;52.556;13.430;2023-02-28T05:01:24;7.47;;;2.45;;
27293;SDS011;14785;52.556;13.430;2023-02-28T05:06:17;7.22;;;2.63;;
27293;SDS011;14785;52.556;13.430;2023-02-28T05:11:14;7.88;;;3.42;;
27293;SDS011;14785;52.556;13.430;2023-02-28T05:13:44;4.53;;;2.50;;
27293;SDS011;14785;52.556;13.430;2023-02-28T05:16:10;5.38;;;3.05;;
27293;SDS011;14785;52.556;13.430;2023-02-28T05:18:36;7.03;;;2.77;;
27293;SDS011;14785;52.556;13.430;2023-02-28T05:21:02;11.23;;;3.17;;
27293;SDS011;14785;52.556;13.430;2023-02-28T05:23:28;13.70;;;3.80;;
27293;SDS011;14785;52.556;13.430;2023-02-28T05:25:54;9.93;;;3.85;;
27293;SDS011;14785;52.556;13.430;2023-02-28T05:28:19;5.20;;;3.33;;
27293;SDS011;14785;52.556;13.430;2023-02-28T05:30:45;7.55;;;4.53;;
27293;SDS011;14785;52.556;13.430;2023-02-28T05:33:11;7.57;;;3.38;;
27293;SDS011;14785;52.556;13.430;2023-02-28T05:35:40;10.10;;;4.38;;
27293;SDS011;14785;52.556;13.430;2023-02-28T05:38:07;11.38;;;4.30;;
27293;SDS011;14785;52.556;13.430;2023-02-28T05:40:33;13.30;;;3.53;;
27293;SDS011;14785;52.556;13.430;2023-02-28T05:42:59;13.55;;;4.13;;
27293;SDS011;14785;52.556;13.430;2023-02-28T05:45:25;13.20;;;4.35;;
27293;SDS011;14785;52.556;13.430;2023-02-28T05:47:55;11.25;;;3.58;;
27293;SDS011;14785;52.556;13.430;2023-02-28T05:50:21;14.43;;;5.13;;
27293;SDS011;14785;52.556;13.430;2023-02-28T05:52:50;7.43;;;4.07;;
27293;SDS011;14785;52.556;13.430;2023-02-28T05:55:16;6.70;;;3.63;;
27293;SDS011;14785;52.556;13.430;2023-02-28T05:57:41;8.37;;;4.27;;
27293;SDS011;14785;52.556;13.430;2023-02-28T06:00:08;7.00;;;3.17;;
27293;SDS011;14785;52.556;13.430;2023-02-28T06:02:34;5.97;;;3.10;;
27293;SDS011;14785;52.556;13.430;2023-02-28T06:05:00;7.37;;;3.77;;
27293;SDS011;14785;52.556;13.430;2023-02-28T06:07:26;7.93;;;3.45;;
27293;SDS011;14785;52.556;13.430;2023-02-28T06:09:51;9.53;;;3.90;;
27293;SDS011;14785;52.556;13.430;2023-02-28T06:12:16;4.67;;;2.83;;
27293;SDS011;14785;52.556;13.430;2023-02-28T06:14:42;3.70;;;2.80;;
27293;SDS011;14785;52.556;13.430;2023-02-28T06:17:08;7.20;;;2.53;;
27293;SDS011;14785;52.556;13.430;2023-02-28T06:19:36;5.50;;;3.35;;
27293;SDS011;14785;52.556;13.430;2023-02-28T06:22:03;6.63;;;3.03;;
27293;SDS011;14785;52.556;13.430;2023-02-28T06:24:30;8.88;;;3.00;;
27293;SDS011;14785;52.556;13.430;2023-02-28T06:26:56;11.02;;;3.28;;
27293;SDS011;14785;52.556;13.430;2023-02-28T06:29:24;9.57;;;4.18;;
27293;SDS011;14785;52.556;13.430;2023-02-28T06:31:49;11.85;;;4.80;;
27293;SDS011;14785;52.556;13.430;2023-02-28T06:34:15;8.60;;;4.53;;
27293;SDS011;14785;52.556;13.430;2023-02-28T06:36:41;7.57;;;2.78;;
27293;SDS011;14785;52.556;13.430;2023-02-28T06:39:07;8.50;;;3.15;;
27293;SDS011;14785;52.556;13.430;2023-02-28T06:41:34;5.38;;;2.92;;
27293;SDS011;14785;52.556;13.430;2023-02-28T06:44:03;8.45;;;3.58;;
27293;SDS011;14785;52.556;13.430;2023-02-28T06:46:42;9.75;;;3.95;;
27293;SDS011;14785;52.556;13.430;2023-02-28T06:49:09;8.18;;;2.92;;
27293;SDS011;14785;52.556;13.430;2023-02-28T06:51:36;7.35;;;3.45;;
27293;SDS011;14785;52.556;13.430;2023-02-28T06:54:02;9.70;;;3.95;;
27293;SDS011;14785;52.556;13.430;2023-02-28T06:56:29;13.65;;;4.57;;
27293;SDS011;14785;52.556;13.430;2023-02-28T06:58:54;12.05;;;4.20;;
27293;SDS011;14785;52.556;13.430;2023-02-28T07:01:21;8.63;;;3.92;;
27293;SDS011;14785;52.556;13.430;2023-02-28T07:03:48;7.65;;;3.13;;
27293;SDS011;14785;52.556;13.430;2023-02-28T07:06:17;9.68;;;4.03;;
27293;SDS011;14785;52.556;13.430;2023-02-28T07:08:47;13.40;;;4.55;;
27293;SDS011;14785;52.556;13.430;2023-02-28T07:11:13;8.73;;;3.75;;
27293;SDS011;14785;52.556;13.430;2023-02-28T07:13:38;9.37;;;4.30;;
27293;SDS011;14785;52.556;13.430;2023-02-28T07:16:05;11.57;;;3.72;;
27293;SDS011;14785;52.556;13.430;2023-02-28T07:18:33;11.30;;;5.20;;
27293;SDS011;14785;52.556;13.430;2023-02-28T07:21:04;11.38;;;4.45;;
27293;SDS011;14785;52.556;13.430;2023-02-28T07:23:31;10.45;;;4.90;;
27293;SDS011;14785;52.556;13.430;2023-02-28T07:25:56;8.97;;;4.23;;
27293;SDS011;14785;52.556;13.430;2023-02-28T07:28:22;13.90;;;5.13;;
27293;SDS011;14785;52.556;13.430;2023-02-28T07:30:47;11.40;;;4.53;;
27293;SDS011;14785;52.556;13.430;2023-02-28T07:33:13;10.93;;;4.43;;
27293;SDS011;14785;52.556;13.430;2023-02-28T07:35:39;19.80;;;5.72;;
27293;SDS011;14785;52.556;13.430;2023-02-28T07:38:04;10.70;;;4.80;;
27293;SDS011;14785;52.556;13.430;2023-02-28T07:40:30;14.02;;;6.82;;
27293;SDS011;14785;52.556;13.430;2023-02-28T07:42:56;13.33;;;5.97;;
27293;SDS011;14785;52.556;13.430;2023-02-28T07:45:21;11.07;;;5.70;;
27293;SDS011;14785;52.556;13.430;2023-02-28T07:47:47;15.23;;;5.40;;
27293;SDS011;14785;52.556;13.430;2023-02-28T07:50:13;15.17;;;5.40;;
27293;SDS011;14785;52.556;13.430;2023-02-28T07:52:41;9.95;;;4.88;;
27293;SDS011;14785;52.556;13.430;2023-02-28T07:55:07;10.77;;;5.00;;
27293;SDS011;14785;52.556;13.430;2023-02-28T07:57:34;11.23;;;4.80;;
27293;SDS011;14785;52.556;13.430;2023-02-28T08:00:00;12.02;;;4.57;;
27293;SDS011;14785;52.556;13.430;2023-02-28T08:02:26;17.80;;;5.45;;
27293;SDS011;14785;52.556;13.430;2023-02-28T08:04:51;36.80;;;6.30;;
27293;SDS011;14785;52.556;13.430;2023-02-28T08:07:17;9.90;;;5.87;;
27293;SDS011;14785;52.556;13.430;2023-02-28T08:09:43;9.85;;;4.35;;
27293;SDS011;14785;52.556;13.430;2023-02-28T08:12:09;12.20;;;5.10;;
27293;SDS011;14785;52.556;13.430;2023-02-28T08:14:36;10.70;;;4.75;;
27293;SDS011;14785;52.556;13.430;2023-02-28T08:17:02;5.57;;;3.15;;
27293;SDS011;14785;52.556;13.430;2023-02-28T08:19:28;7.88;;;4.63;;
27293;SDS011;14785;52.556;13.430;2023-02-28T08:21:54;8.88;;;4.85;;
27293;SDS011;14785;52.556;13.430;2023-02-28T08:24:20;11.55;;;4.97;;
27293;SDS011;14785;52.556;13.430;2023-02-28T08:26:46;10.52;;;4.70;;
27293;SDS011;14785;52.556;13.430;2023-02-28T08:29:12;12.30;;;5.00;;
27293;SDS011;14785;52.556;13.430;2023-02-28T08:31:37;20.07;;;5.27;;
27293;SDS011;14785;52.556;13.430;2023-02-28T08:34:07;12.95;;;4.65;;
27293;SDS011;14785;52.556;13.430;2023-02-28T08:36:33;7.28;;;3.78;;
27293;SDS011;14785;52.556;13.430;2023-02-28T08:38:59;12.98;;;4.18;;
27293;SDS011;14785;52.556;13.430;2023-02-28T08:41:25;39.60;;;13.07;;
27293;SDS011;14785;52.556;13.430;2023-02-28T08:43:51;24.75;;;6.47;;
27293;SDS011;14785;52.556;13.430;2023-02-28T08:46:18;13.48;;;5.00;;
27293;SDS011;14785;52.556;13.430;2023-02-28T08:48:44;9.85;;;2.22;;
27293;SDS011;14785;52.556;13.430;2023-02-28T08:51:11;5.73;;;2.67;;
27293;SDS011;14785;52.556;13.430;2023-02-28T08:53:46;7.47;;;1.95;;
27293;SDS011;14785;52.556;13.430;2023-02-28T08:56:14;4.43;;;1.88;;
27293;SDS011;14785;52.556;13.430;2023-02-28T08:58:41;6.82;;;2.15;;
27293;SDS011;14785;52.556;13.430;2023-02-28T09:01:11;5.63;;;2.30;;
27293;SDS011;14785;52.556;13.430;2023-02-28T09:03:45;3.08;;;1.25;;
27293;SDS011;14785;52.556;13.430;2023-02-28T09:06:12;6.32;;;2.35;;
27293;SDS011;14785;52.556;13.430;2023-02-28T09:08:38;13.98;;;2.15;;
27293;SDS011;14785;52.556;13.430;2023-02-28T09:11:05;3.47;;;1.55;;
27293;SDS011;14785;52.556;13.430;2023-02-28T09:13:30;5.13;;;2.00;;
27293;SDS011;14785;52.556;13.430;2023-02-28T09:15:57;5.57;;;1.88;;
27293;SDS011;14785;52.556;13.430;2023-02-28T09:18:25;1.88;;;1.50;;
27293;SDS011;14785;52.556;13.430;2023-02-28T09:23:16;8.95;;;2.65;;
27293;SDS011;14785;52.556;13.430;2023-02-28T09:25:48;9.67;;;4.47;;
27293;SDS011;14785;52.556;13.430;2023-02-28T09:28:16;9.18;;;1.30;;
27293;SDS011;14785;52.556;13.430;2023-02-28T09:30:42;3.55;;;1.63;;
27293;SDS011;14785;52.556;13.430;2023-02-28T09:33:09;3.40;;;1.55;;
27293;SDS011;14785;52.556;13.430;2023-02-28T09:35:35;2.23;;;1.27;;
27293;SDS011;14785;52.556;13.430;2023-02-28T09:38:02;1.55;;;1.10;;
27293;SDS011;14785;52.556;13.430;2023-02-28T09:40:28;6.13;;;1.08;;
27293;SDS011;14785;52.556;13.430;2023-02-28T09:42:54;5.05;;;1.58;;
27293;SDS011;14785;52.556;13.430;2023-02-28T09:45:27;2.47;;;1.13;;
27293;SDS011;14785;52.556;13.430;2023-02-28T09:47:59;9.55;;;1.38;;
27293;SDS011;14785;52.556;13.430;2023-02-28T09:56:05;2.60;;;1.25;;
27293;SDS011;14785;52.556;13.430;2023-02-28T09:58:54;1.35;;;1.08;;
27293;SDS011;14785;52.556;13.430;2023-02-28T10:09:50;2.33;;;1.13;;
27293;SDS011;14785;52.556;13.430;2023-02-28T10:12:20;3.92;;;1.33;;
27293;SDS011;14785;52.556;13.430;2023-02-28T10:17:24;2.88;;;1.63;;
27293;SDS011;14785;52.556;13.430;2023-02-28T10:20:02;2.40;;;0.80;;
27293;SDS011;14785;52.556;13.430;2023-02-28T10:22:42;1.70;;;0.95;;
27293;SDS011;14785;52.556;13.430;2023-02-28T10:25:17;2.50;;;1.60;;
27293;SDS011;14785;52.556;13.430;2023-02-28T10:27:44;6.30;;;1.30;;
27293;SDS011;14785;52.556;13.430;2023-02-28T10:30:10;5.03;;;2.07;;
27293;SDS011;14785;52.556;13.430;2023-02-28T10:38:02;0.95;;;0.80;;
27293;SDS011;14785;52.556;13.430;2023-02-28T10:40:40;2.92;;;1.25;;
27293;SDS011;14785;52.556;13.430;2023-02-28T10:45:37;10.77;;;1.08;;
27293;SDS011;14785;52.556;13.430;2023-02-28T10:48:25;0.93;;;0.65;;
27293;SDS011;14785;52.556;13.430;2023-02-28T10:50:54;2.53;;;1.23;;
27293;SDS011;14785;52.556;13.430;2023-02-28T10:53:30;21.52;;;1.63;;
27293;SDS011;14785;52.556;13.430;2023-02-28T10:58:30;1.00;;;0.75;;
27293;SDS011;14785;52.556;13.430;2023-02-28T11:01:10;5.45;;;0.98;;
27293;SDS011;14785;52.556;13.430;2023-02-28T11:03:39;3.00;;;0.75;;
27293;SDS011;14785;52.556;13.430;2023-02-28T11:06:24;2.40;;;1.20;;
27293;SDS011;14785;52.556;13.430;2023-02-28T11:08:51;3.70;;;1.75;;
27293;SDS011;14785;52.556;13.430;2023-02-28T11:11:19;1.38;;;0.90;;
27293;SDS011;14785;52.556;13.430;2023-02-28T11:13:46;1.33;;;0.75;;
27293;SDS011;14785;52.556;13.430;2023-02-28T11:16:15;4.30;;;1.35;;
27293;SDS011;14785;52.556;13.430;2023-02-28T11:18:54;2.42;;;1.65;;
27293;SDS011;14785;52.556;13.430;2023-02-28T11:21:28;3.95;;;1.30;;
27293;SDS011;14785;52.556;13.430;2023-02-28T11:26:53;1.58;;;0.93;;
27293;SDS011;14785;52.556;13.430;2023-02-28T11:34:44;2.55;;;1.27;;
27293;SDS011;14785;52.556;13.430;2023-02-28T11:37:15;2.00;;;1.38;;
27293;SDS011;14785;52.556;13.430;2023-02-28T11:39:44;3.60;;;2.10;;
27293;SDS011;14785;52.556;13.430;2023-02-28T11:51:34;2.83;;;1.60;;
27293;SDS011;14785;52.556;13.430;2023-02-28T12:01:56;3.92;;;1.85;;
27293;SDS011;14785;52.556;13.430;2023-02-28T12:07:32;3.35;;;1.40;;
27293;SDS011;14785;52.556;13.430;2023-02-28T12:15:43;12.23;;;1.83;;
27293;SDS011;14785;52.556;13.430;2023-02-28T12:21:48;6.93;;;1.77;;
27293;SDS011;14785;52.556;13.430;2023-02-28T12:27:31;14.52;;;3.17;;
27293;SDS011;14785;52.556;13.430;2023-02-28T12:30:03;7.47;;;1.95;;
27293;SDS011;14785;52.556;13.430;2023-02-28T12:33:00;2.05;;;1.15;;
27293;SDS011;14785;52.556;13.430;2023-02-28T12:35:38;3.13;;;1.40;;
27293;SDS011;14785;52.556;13.430;2023-02-28T12:38:10;2.60;;;1.60;;
27293;SDS011;14785;52.556;13.430;2023-02-28T12:40:45;5.88;;;2.38;;
27293;SDS011;14785;52.556;13.430;2023-02-28T12:43:16;2.80;;;1.60;;
27293;SDS011;14785;52.556;13.430;2023-02-28T12:45:48;3.67;;;1.55;;
27293;SDS011;14785;52.556;13.430;2023-02-28T12:48:21;7.20;;;2.42;;
27293;SDS011;14785;52.556;13.430;2023-02-28T12:56:13;3.78;;;1.35;;
27293;SDS011;14785;52.556;13.430;2023-02-28T12:58:52;3.38;;;1.30;;
27293;SDS011;14785;52.556;13.430;2023-02-28T13:09:38;13.02;;;2.20;;
27293;SDS011;14785;52.556;13.430;2023-02-28T13:12:12;4.15;;;2.10;;
27293;SDS011;14785;52.556;13.430;2023-02-28T13:14:39;2.10;;;1.40;;
27293;SDS011;14785;52.556;13.430;2023-02-28T13:19:37;2.58;;;1.67;;
27293;SDS011;14785;52.556;13.430;2023-02-28T13:22:16;3.80;;;1.40;;
27293;SDS011;14785;52.556;13.430;2023-02-28T13:25:05;2.25;;;1.55;;
27293;SDS011;14785;52.556;13.430;2023-02-28T13:27:49;2.88;;;1.35;;
27293;SDS011;14785;52.556;13.430;2023-02-28T13:35:50;2.75;;;1.73;;
27293;SDS011;14785;52.556;13.430;2023-02-28T13:38:44;12.38;;;5.47;;
27293;SDS011;14785;52.556;13.430;2023-02-28T13:44:07;1.30;;;1.10;;
27293;SDS011;14785;52.556;13.430;2023-02-28T13:54:58;3.08;;;1.40;;
27293;SDS011;14785;52.556;13.430;2023-02-28T14:03:29;4.47;;;1.58;;
27293;SDS011;14785;52.556;13.430;2023-02-28T14:06:17;4.63;;;1.40;;
27293;SDS011;14785;52.556;13.430;2023-02-28T14:08:51;3.03;;;1.52;;
27293;SDS011;14785;52.556;13.430;2023-02-28T14:11:26;2.08;;;1.23;;
27293;SDS011;14785;52.556;13.430;2023-02-28T14:13:57;2.20;;;1.55;;
27293;SDS011;14785;52.556;13.430;2023-02-28T14:16:24;1.80;;;1.17;;
27293;SDS011;14785;52.556;13.430;2023-02-28T14:18:56;2.40;;;1.92;;
27293;SDS011;14785;52.556;13.430;2023-02-28T14:21:32;6.07;;;1.50;;
27293;SDS011;14785;52.556;13.430;2023-02-28T14:24:22;6.85;;;1.70;;
27293;SDS011;14785;52.556;13.430;2023-02-28T14:38:04;3.25;;;1.35;;
27293;SDS011;14785;52.556;13.430;2023-02-28T14:40:33;1.88;;;1.42;;
27293;SDS011;14785;52.556;13.430;2023-02-28T14:43:04;5.30;;;2.10;;
27293;SDS011;14785;52.556;13.430;2023-02-28T14:45:34;4.90;;;1.55;;
27293;SDS011;14785;52.556;13.430;2023-02-28T14:48:02;2.97;;;1.63;;
27293;SDS011;14785;52.556;13.430;2023-02-28T14:50:34;2.45;;;1.20;;
27293;SDS011;14785;52.556;13.430;2023-02-28T14:53:02;3.90;;;1.50;;
27293;SDS011;14785;52.556;13.430;2023-02-28T14:57:59;2.72;;;1.33;;
27293;SDS011;14785;52.556;13.430;2023-02-28T15:00:32;4.35;;;1.67;;
27293;SDS011;14785;52.556;13.430;2023-02-28T15:03:01;4.25;;;1.60;;
27293;SDS011;14785;52.556;13.430;2023-02-28T15:05:42;3.38;;;1.73;;
27293;SDS011;14785;52.556;13.430;2023-02-28T15:08:16;5.50;;;2.00;;
27293;SDS011;14785;52.556;13.430;2023-02-28T15:10:44;3.80;;;2.75;;
27293;SDS011;14785;52.556;13.430;2023-02-28T15:13:16;5.65;;;2.63;;
27293;SDS011;14785;52.556;13.430;2023-02-28T15:18:27;3.63;;;1.38;;
27293;SDS011;14785;52.556;13.430;2023-02-28T15:20:53;3.88;;;1.52;;
27293;SDS011;14785;52.556;13.430;2023-02-28T15:23:20;3.20;;;1.35;;
27293;SDS011;14785;52.556;13.430;2023-02-28T15:25:47;2.50;;;1.95;;
27293;SDS011;14785;52.556;13.430;2023-02-28T15:28:17;2.42;;;1.77;;
27293;SDS011;14785;52.556;13.430;2023-02-28T15:34:02;4.30;;;1.92;;
27293;SDS011;14785;52.556;13.430;2023-02-28T15:36:30;3.67;;;2.05;;
27293;SDS011;14785;52.556;13.430;2023-02-28T15:38:59;6.72;;;1.67;;
27293;SDS011;14785;52.556;13.430;2023-02-28T15:41:43;15.15;;;2.08;;
27293;SDS011;14785;52.556;13.430;2023-02-28T15:47:04;6.93;;;2.38;;
27293;SDS011;14785;52.556;13.430;2023-02-28T15:49:45;2.80;;;1.95;;
27293;SDS011;14785;52.556;13.430;2023-02-28T15:52:17;4.70;;;1.70;;
27293;SDS011;14785;52.556;13.430;2023-02-28T15:54:46;5.18;;;2.30;;
27293;SDS011;14785;52.556;13.430;2023-02-28T15:57:46;5.07;;;2.78;;
27293;SDS011;14785;52.556;13.430;2023-02-28T16:00:06;5.28;;;2.22;;
27293;SDS011;14785;52.556;13.430;2023-02-28T16:02:39;2.90;;;1.55;;
27293;SDS011;14785;52.556;13.430;2023-02-28T16:07:34;4.90;;;2.23;;
27293;SDS011;14785;52.556;13.430;2023-02-28T16:10:08;7.03;;;2.00;;
27293;SDS011;14785;52.556;13.430;2023-02-28T16:12:36;5.15;;;2.38;;
27293;SDS011;14785;52.556;13.430;2023-02-28T16:15:07;6.30;;;2.58;;
27293;SDS011;14785;52.556;13.430;2023-02-28T16:17:42;4.55;;;2.50;;
27293;SDS011;14785;52.556;13.430;2023-02-28T16:20:14;3.33;;;1.77;;
27293;SDS011;14785;52.556;13.430;2023-02-28T16:22:43;8.02;;;2.58;;
27293;SDS011;14785;52.556;13.430;2023-02-28T16:25:13;3.90;;;1.98;;
27293;SDS011;14785;52.556;13.430;2023-02-28T16:27:42;7.55;;;2.22;;
27293;SDS011;14785;52.556;13.430;2023-02-28T16:30:15;3.13;;;2.00;;
27293;SDS011;14785;52.556;13.430;2023-02-28T16:32:45;2.85;;;1.95;;
27293;SDS011;14785;52.556;13.430;2023-02-28T16:35:10;4.13;;;1.87;;
27293;SDS011;14785;52.556;13.430;2023-02-28T16:37:38;6.10;;;2.55;;
27293;SDS011;14785;52.556;13.430;2023-02-28T16:40:04;5.70;;;2.38;;
27293;SDS011;14785;52.556;13.430;2023-02-28T16:42:30;2.80;;;1.80;;
27293;SDS011;14785;52.556;13.430;2023-02-28T16:44:56;4.07;;;2.30;;
27293;SDS011;14785;52.556;13.430;2023-02-28T16:47:23;3.95;;;1.80;;
27293;SDS011;14785;52.556;13.430;2023-02-28T16:49:48;2.35;;;1.90;;
27293;SDS011;14785;52.556;13.430;2023-02-28T16:52:14;16.27;;;6.23;;
27293;SDS011;14785;52.556;13.430;2023-02-28T16:54:40;6.07;;;2.57;;
27293;SDS011;14785;52.556;13.430;2023-02-28T16:57:06;4.35;;;1.88;;
27293;SDS011;14785;52.556;13.430;2023-02-28T16:59:41;3.67;;;1.83;;
27293;SDS011;14785;52.556;13.430;2023-02-28T17:02:11;2.37;;;1.63;;
27293;SDS011;14785;52.556;13.430;2023-02-28T17:04:39;5.18;;;2.35;;
27293;SDS011;14785;52.556;13.430;2023-02-28T17:07:04;4.27;;;1.90;;
27293;SDS011;14785;52.556;13.430;2023-02-28T17:09:30;7.10;;;2.03;;
27293;SDS011;14785;52.556;13.430;2023-02-28T17:11:55;5.97;;;2.47;;
27293;SDS011;14785;52.556;13.430;2023-02-28T17:14:21;5.05;;;2.42;;
27293;SDS011;14785;52.556;13.430;2023-02-28T17:16:48;5.10;;;2.03;;
27293;SDS011;14785;52.556;13.430;2023-02-28T17:19:14;4.63;;;2.37;;
27293;SDS011;14785;52.556;13.430;2023-02-28T17:21:42;7.20;;;3.17;;
27293;SDS011;14785;52.556;13.430;2023-02-28T17:24:08;11.57;;;3.33;;
27293;SDS011;14785;52.556;13.430;2023-02-28T17:26:37;2.72;;;2.00;;
27293;SDS011;14785;52.556;13.430;2023-02-28T17:29:20;3.08;;;2.05;;
27293;SDS011;14785;52.556;13.430;2023-02-28T17:31:48;8.32;;;2.45;;
27293;SDS011;14785;52.556;13.430;2023-02-28T17:34:14;9.65;;;2.95;;
27293;SDS011;14785;52.556;13.430;2023-02-28T17:36:43;7.93;;;3.33;;